Timeline UpdatesTrip UpdatesNews PostsPvt PostsTravel TipsAdmin PostsConv PostsFollowed PostsChat RequestsBlog PostsPNR Posts

Disclaimer
Search
 
 
Fri Sep 19, 2014 11:20:01 ISTHomeTrainsΣChainsAtlasPNRForumGalleryNewsFAQTripsMembersLoginFeedback
No Recent News for this Train
Other Trains in the News **new
Latest...
.
Fri Sep 05, 2014 (07:42AM)
⇐ Return Journey: Train# 75720

75401⇒75719/Malda Town - Dinhata Passenger

Time-Table HAS CHANGED.
Sep 05 (7:44AM)
Change Departure Station:
Change Arrival Station:
Post a Train Travel TipPost a Train Travel Tip **new
Post a Comment/Question/Picture/VideoPost a Comment/Question/Picture/Video
Inaugural Run
Fri Aug 02, 2013
Pantry/Catering
✕ NO Pantry Car
✕ NO Catering
RSA - Rake Sharing
Rake/Coach Composition
Loco
News    PNR    Forum    Time-Table    Availability    Fare Chart    Map    Arr/Dep History    Trips    Gallery    ΣChains    X/O    Timeline    
Travel Time: 2h 32m    11 halts    Distance: 85 km    Avg Speed: 33 km/hr
Type: DEMU
Zone: NFR/Northeast Frontier
Departs @ 16:05
Platform# ???
SMTWTFS
New Maynaguri/NMX 
Arrives @ 18:37
Platform# 1
SMTWTFS
Cooch Behar/COB 

11 halts. 12 intermediate Stations between New Maynaguri and Cooch Behar

Show ALL intermediate Stations  Show Old Time-Table

#CodeStation NameX/OArrivesAvgDepartsAvgHaltPFDay#KmSpeedElevZoneAddress
1MLDTMalda Town (5)  -08:10---1-279.33430mERDist - Malda, West Bengal
2OMLFOld Malda Junction (3)X  08:18 08:20-08:19 08:21-1m--1-273.66131mNFRDist - Malda, West Bengal
3ADFAdina (2)X  08:26 08:28-08:27 08:29-1m--1-266.45633mNFRNational Highway 34, West Bengal
4EKIEklakhi Junction (4)  08:34 08:36-08:35 08:37-1m--1-259.94133mNFRDistt. - Malda, West Bengal
5MBCMahananda Bridge (2)  08:39 08:41-08:40 08:42-1m--1-257.15728mNFRMahananda, West Bengal
6KMRJKumarganj (2)  08:44 08:46-08:45 08:47-1m--1-253.37228mNFRNational Highway 34, West Bengal
7SRPUSripur Halt (2)  08:49 08:51-08:50 08:52-1m--1-248.54927mNFRSripur, West Bengal
8SMSamsi (2)O  08:55 08:57-08:56 08:58-1m--1-244.51532mNFRdist - Malda, West Bengal
9MFZMalahar (2)  09:02 09:22-09:03 09:23-1m--1-238.57531mNFRNational Highway 81, West Bengal
10BKRDBhaluka Road F (2)  09:08 09:28-09:29-21 1m--1-232.24230mNFRBhaluka, West Bengal
11MQGMilangarh (2)  09:30 09:34-09:31 09:35-1m--1-228.74229mNFRMilangarh, West Bengal
12HCRHarischandrapur (2)X  09:38 09:42-09:39 09:43-1m--1-223.84531mNFRHarischandrapur, West Bengal
13KDPRKumedpur Junction (5)  09:47 09:52-09:48 09:53-1m--1-217.13233mNFRDist. - Malda, West Bengal
14BAHNBabhabgaon Halt (2)  09:53 09:58-09:54 09:59-1m--1-214.57231mNFRBabhabgaon, West Bengal
15KWEKhurial (2)  09:58 10:03-09:59 10:04-1m--1-209.75733mNFRKhurial, Bihar
16KMPHKamalpur Halt (2)  10:02 10:07-10:03 10:08-1m--1-206.89632mNFRKamalpur, Bihar
17AZRAzamnagar Road (3)X  10:06 10:11-10:07 10:12-1m--1-202.05234mNFRAzamnagar, Bihar
18BWPBBhawanipur Bihar (2)  10:12 10:17-10:13 10:18-1m11-197.74836mNFRBhawanipur, Bihar
19MFAMukuria Junction (2)X  10:18 10:23-10:19 10:24-1m--1-193.62832mNFRMukuria, Bihar
20BOEBarsoi Junction (3)X  10:25 10:33-10:27 10:35-2m--1-189.47337mNFRdist- katihar, Bihar
21SJGMSanjay Gram  10:34 10:42-10:35 10:43-1m--1-180.95134mNFRSanjay Gram, West Bengal
22SUDSudhani (2)  10:46 10:47-10:47 10:48-1m--1-177.57538mNFRState Highway 65, Bihar
23AHLAjharail  10:52 10:53-10:53 10:54-1m--1-171.33437mNFRNational Highway 34, West Bengal
24TETATelta (2)  10:58 10:59-10:59 11:00-1m--1-168.46140mNFRRupauli, Bihar
25DLKDalkhola (3)X  11:07 11:08-11:09 11:10-2m--1-160.36144mNFRDalkola, West Bengal
26SJKLSurja Kamal (2)  11:16 11:17-11:17 11:18-1m--1-153.33844mNFRNational Highway 31, West Bengal
27KKAKanki (3)XO  11:28 11:30-11:29 11:31-1m--1-145.6947mNFRKanki, West Bengal
28HWRHatwar (2)  11:49 12:09-11:50 12:10-1m--1-140.28446mNFRNational Highway 31, West Bengal
29KNEKishanGanj (3)X  12:23 12:16-12:25 12:17-2 1m--1-131.812352mNFRKishanganj, Bihar
30PJPPanjipara (3)O  12:33 12:21-12:34 12:23-1 2m--1-123.66655mNFRNational Highway 31, West Bengal
31GILGaisal (3)O  12:42 12:31-12:43 12:32-1m--1-114.94362mNFRNational Highway 31, West Bengal
32GEORGunjaria  12:49 12:40-12:50 12:41-1m--1-109.28064mNFRNational Highway 31, West Bengal
33AUBAluabari Road (2)  12:57 12:47-12:59 12:48-2 1m--1-101.2580mNFRDist - uttar Dinajpur, West Bengal
34DBQDhulabariX  13:04 12:53-13:05 12:55-1 2m--1-96.42168mNFRKishanganj, Bihar
35MXJMangurjan  13:11 13:13-13:12 13:14-1m--1-90.06169mNFRMangurjan, West Bengal
36TMHTin Mile Hat  13:18 13:20-13:19 13:21-1m--1-83.84474mNFRTin Mile, West Bengal
37DMZDumdangiX  13:27 13:33-13:28 13:34-1m--1-74.96886mNFRHaftia Rd, West Bengal
38CATChattar Hat (2)X  13:36 13:42-13:37 13:43-1m--1-65.93691mNFRChattar, West Bengal
39NJBNijbariX  13:44 13:55-13:45 13:56-1m--1-58.746104mNFRFulbari Ghoshpukur Bypass, West Bengal
40RNIRangapani (2)  13:56 14:05-13:57 14:06-1m--1-51.923114mNFRSILIGURI Dist - Darjeeling, West Bengal
41NJPNew Jalpaiguri Junction (8)X  14:25-14:35-10m--1-44.537114mNFRCity-Siliguri . Dist-Jalpaiguri, West Bengal
42ABFCAmbari Falakata (2)  14:45 14:49-14:46 14:50-1m--1-35.856105mNFRdist - jalpaiguri 735201, West Bengal
43BLKBelakoba (2)X  14:55 15:00-14:56 15:01-1m11-26.41699mNFRDist - jalpaiguri, West Bengal
44RQJRaninagar Jalpaiguri Junction (3)  15:30-15:31-1m--1-18.73691mNFRDIST - Jalpaiguri, West Bengal
45JPEJalpaiguri Road (2)X  15:37 15:43-15:38 15:44-1m11-11.55189mNFRdist - Jalpaiguri 735102, West Bengal
46NQHNew Domohani (2)X  15:45 15:53-15:46 15:54-1m11-3.82384mNFRDist - Jalpaiguri, West Bengal
47NMXNew Maynaguri (2)»  15:58 16:04-15:59 16:05-1m--10.04886mNFRDist - Jalpaiguri, West Bengal
48BYXABetgara (2)  16:04 16:11-16:05 16:12-1m114.98789mNFRDIST - Jalpaiguri, West Bengal
49ATMAltagram (2)X  16:13 16:18-16:14 16:19-1m--113.54085mNFRDist - Jalpaiguri, West Bengal
50DQGDhupguri (2)  16:29-16:30-1m--120.36875mNFRDist - Jalpaiguri, West Bengal
51KLGRKolai Gram (2)X  16:36-16:37-1m--127.02375mNFRDist : Jalpaiguri, West Bengal
52SXXSalbari (2)  16:48 16:54-16:49 16:55-1m--133.77769mNFRDist - jalpaiguri, West Bengal
53FLKFalakata (3)O  16:57 17:02-16:58 17:03-1m--142.72867mNFRDist - Alipurduar, West Bengal
54GUZGumanihat (2)X  17:06 17:25-17:07 17:26-1m1153.11160mNFRDist : Cooch Behar, West Bengal
55GDXGhoksadanga (2)  17:35 17:54-17:36 17:55-1m--158.37558mNFRDist : Cooch Behar, West Bengal
56SJRRSajherpar (2)X  17:47 18:01-17:48 18:02-1m--165.95454mNFRDist : Cooch Behar, West Bengal
57PQZPundibari (1)  18:00 18:07-18:01 18:08-1m1170.33653mNFRDist - Coochbehar, West Bengal
58NCBNew Cooch Behar Junction (5)  18:25-18:30-5m--180.53947mNFRDist : Cooch Behar-736101, West Bengal
59COBCooch Behar (1)•  18:45 18:37-18:50 18:38-5 1m1185.05146mNFRDist : Cooch Behar, West Bengal
60DWTDewan Hat (1)  19:02 18:50-19:03 18:51-1m1195.24441mNFRdist - Coachbehar, West Bengal
61VTGBhetaguri (1)  19:08 18:56-19:09 18:57-1m1198.93643mNFRDist : Cooch Behar, West Bengal
62DCHDinhatta College Halt (1)  19:20 19:08-19:21 19:09-1m11105.5738mNFRDinhata, West Bengal
63DHHDinhata (2)  19:30----1107.9-39mNFRDist - Coochbehar, West Bengal
Scroll to Top
Scroll to Bottom